sensor_id;sensor_type;location;lat;lon;timestamp;P1;durP1;ratioP1;P2;durP2;ratioP2
72761;SDS011;60886;55.034;73.150;2023-09-19T00:02:57;24.75;;;11.20;;
72761;SDS011;60886;55.034;73.150;2023-09-19T00:06:03;26.70;;;12.23;;
72761;SDS011;60886;55.034;73.150;2023-09-19T00:09:11;31.55;;;11.68;;
72761;SDS011;60886;55.034;73.150;2023-09-19T00:12:12;27.23;;;12.13;;
72761;SDS011;60886;55.034;73.150;2023-09-19T00:15:14;28.70;;;12.38;;
72761;SDS011;60886;55.034;73.150;2023-09-19T00:18:19;27.83;;;13.13;;
72761;SDS011;60886;55.034;73.150;2023-09-19T00:21:25;30.33;;;12.13;;
72761;SDS011;60886;55.034;73.150;2023-09-19T00:24:27;27.05;;;12.52;;
72761;SDS011;60886;55.034;73.150;2023-09-19T00:27:29;26.73;;;11.73;;
72761;SDS011;60886;55.034;73.150;2023-09-19T00:30:30;42.47;;;17.40;;
72761;SDS011;60886;55.034;73.150;2023-09-19T00:33:32;27.75;;;12.55;;
72761;SDS011;60886;55.034;73.150;2023-09-19T00:36:35;26.60;;;12.07;;
72761;SDS011;60886;55.034;73.150;2023-09-19T00:39:36;25.98;;;11.60;;
72761;SDS011;60886;55.034;73.150;2023-09-19T00:42:41;38.03;;;13.50;;
72761;SDS011;60886;55.034;73.150;2023-09-19T00:45:44;29.95;;;13.57;;
72761;SDS011;60886;55.034;73.150;2023-09-19T00:48:49;30.75;;;13.23;;
72761;SDS011;60886;55.034;73.150;2023-09-19T00:51:51;29.23;;;13.10;;
72761;SDS011;60886;55.034;73.150;2023-09-19T00:54:52;32.77;;;13.07;;
72761;SDS011;60886;55.034;73.150;2023-09-19T00:57:55;29.55;;;12.93;;
72761;SDS011;60886;55.034;73.150;2023-09-19T01:00:57;36.00;;;13.25;;
72761;SDS011;60886;55.034;73.150;2023-09-19T01:03:59;28.67;;;12.23;;
72761;SDS011;60886;55.034;73.150;2023-09-19T01:07:02;29.35;;;12.15;;
72761;SDS011;60886;55.034;73.150;2023-09-19T01:10:04;31.73;;;11.27;;
72761;SDS011;60886;55.034;73.150;2023-09-19T01:16:32;31.77;;;11.60;;
72761;SDS011;60886;55.034;73.150;2023-09-19T01:30:12;31.67;;;12.23;;
72761;SDS011;60886;55.034;73.150;2023-09-19T01:33:15;29.58;;;11.02;;
72761;SDS011;60886;55.034;73.150;2023-09-19T01:36:19;29.57;;;12.20;;
72761;SDS011;60886;55.034;73.150;2023-09-19T01:39:21;28.95;;;11.63;;
72761;SDS011;60886;55.034;73.150;2023-09-19T01:42:41;29.75;;;11.85;;
72761;SDS011;60886;55.034;73.150;2023-09-19T01:49:13;31.70;;;12.57;;
72761;SDS011;60886;55.034;73.150;2023-09-19T01:52:23;81.50;;;31.17;;
72761;SDS011;60886;55.034;73.150;2023-09-19T01:55:31;30.50;;;14.43;;
72761;SDS011;60886;55.034;73.150;2023-09-19T01:58:50;25.91;;;11.93;;
72761;SDS011;60886;55.034;73.150;2023-09-19T02:01:57;29.70;;;11.77;;
72761;SDS011;60886;55.034;73.150;2023-09-19T02:04:59;28.55;;;11.93;;
72761;SDS011;60886;55.034;73.150;2023-09-19T02:08:02;33.60;;;13.57;;
72761;SDS011;60886;55.034;73.150;2023-09-19T02:11:04;31.67;;;14.20;;
72761;SDS011;60886;55.034;73.150;2023-09-19T02:14:08;28.45;;;13.52;;
72761;SDS011;60886;55.034;73.150;2023-09-19T02:17:10;32.30;;;14.73;;
72761;SDS011;60886;55.034;73.150;2023-09-19T02:20:13;33.28;;;15.00;;
72761;SDS011;60886;55.034;73.150;2023-09-19T02:23:18;36.97;;;15.23;;
72761;SDS011;60886;55.034;73.150;2023-09-19T02:26:30;31.15;;;14.23;;
72761;SDS011;60886;55.034;73.150;2023-09-19T02:29:35;32.53;;;14.10;;
72761;SDS011;60886;55.034;73.150;2023-09-19T02:32:37;29.08;;;14.02;;
72761;SDS011;60886;55.034;73.150;2023-09-19T02:35:39;31.38;;;13.90;;
72761;SDS011;60886;55.034;73.150;2023-09-19T02:38:49;30.11;;;13.46;;
72761;SDS011;60886;55.034;73.150;2023-09-19T02:41:50;31.27;;;13.48;;
72761;SDS011;60886;55.034;73.150;2023-09-19T02:44:52;58.88;;;28.02;;
72761;SDS011;60886;55.034;73.150;2023-09-19T02:47:55;35.03;;;15.73;;
72761;SDS011;60886;55.034;73.150;2023-09-19T02:50:56;34.97;;;15.00;;
72761;SDS011;60886;55.034;73.150;2023-09-19T02:54:00;38.57;;;16.60;;
72761;SDS011;60886;55.034;73.150;2023-09-19T02:57:04;34.28;;;15.70;;
72761;SDS011;60886;55.034;73.150;2023-09-19T03:00:07;36.53;;;15.70;;
72761;SDS011;60886;55.034;73.150;2023-09-19T03:03:11;36.88;;;16.50;;
72761;SDS011;60886;55.034;73.150;2023-09-19T03:06:13;36.17;;;16.13;;
72761;SDS011;60886;55.034;73.150;2023-09-19T03:09:15;33.47;;;16.47;;
72761;SDS011;60886;55.034;73.150;2023-09-19T03:12:17;39.35;;;17.48;;
72761;SDS011;60886;55.034;73.150;2023-09-19T03:15:19;39.23;;;18.30;;
72761;SDS011;60886;55.034;73.150;2023-09-19T03:18:24;38.55;;;18.63;;
72761;SDS011;60886;55.034;73.150;2023-09-19T03:21:27;40.97;;;19.13;;
72761;SDS011;60886;55.034;73.150;2023-09-19T03:24:31;51.87;;;23.57;;
72761;SDS011;60886;55.034;73.150;2023-09-19T03:27:34;57.88;;;24.90;;
72761;SDS011;60886;55.034;73.150;2023-09-19T03:30:36;54.90;;;23.73;;
72761;SDS011;60886;55.034;73.150;2023-09-19T03:33:49;55.39;;;26.07;;
72761;SDS011;60886;55.034;73.150;2023-09-19T03:36:50;53.37;;;26.27;;
72761;SDS011;60886;55.034;73.150;2023-09-19T03:39:52;57.15;;;25.20;;
72761;SDS011;60886;55.034;73.150;2023-09-19T03:42:53;54.78;;;24.85;;
72761;SDS011;60886;55.034;73.150;2023-09-19T03:45:56;53.43;;;25.07;;
72761;SDS011;60886;55.034;73.150;2023-09-19T03:48:58;53.43;;;24.63;;
72761;SDS011;60886;55.034;73.150;2023-09-19T03:51:59;57.33;;;25.42;;
72761;SDS011;60886;55.034;73.150;2023-09-19T03:55:01;51.80;;;23.45;;
72761;SDS011;60886;55.034;73.150;2023-09-19T03:58:06;56.67;;;24.43;;
72761;SDS011;60886;55.034;73.150;2023-09-19T04:01:08;64.72;;;26.88;;
72761;SDS011;60886;55.034;73.150;2023-09-19T04:04:10;52.83;;;26.13;;
72761;SDS011;60886;55.034;73.150;2023-09-19T04:07:13;61.35;;;28.00;;
72761;SDS011;60886;55.034;73.150;2023-09-19T04:10:14;60.17;;;27.17;;
72761;SDS011;60886;55.034;73.150;2023-09-19T04:13:16;48.93;;;26.27;;
72761;SDS011;60886;55.034;73.150;2023-09-19T04:16:18;56.60;;;25.83;;
72761;SDS011;60886;55.034;73.150;2023-09-19T04:19:20;52.47;;;24.97;;
72761;SDS011;60886;55.034;73.150;2023-09-19T04:22:23;62.38;;;28.85;;
72761;SDS011;60886;55.034;73.150;2023-09-19T04:25:25;64.13;;;30.40;;
72761;SDS011;60886;55.034;73.150;2023-09-19T04:28:28;54.67;;;26.87;;
72761;SDS011;60886;55.034;73.150;2023-09-19T04:31:29;55.22;;;26.17;;
72761;SDS011;60886;55.034;73.150;2023-09-19T04:34:32;69.43;;;28.70;;
72761;SDS011;60886;55.034;73.150;2023-09-19T04:37:38;60.83;;;26.87;;
72761;SDS011;60886;55.034;73.150;2023-09-19T04:40:40;58.97;;;26.85;;
72761;SDS011;60886;55.034;73.150;2023-09-19T04:43:49;62.97;;;29.60;;
72761;SDS011;60886;55.034;73.150;2023-09-19T04:46:51;68.28;;;27.65;;
72761;SDS011;60886;55.034;73.150;2023-09-19T04:49:52;65.50;;;27.77;;
72761;SDS011;60886;55.034;73.150;2023-09-19T04:52:54;56.45;;;26.45;;
72761;SDS011;60886;55.034;73.150;2023-09-19T04:55:55;56.07;;;24.77;;
72761;SDS011;60886;55.034;73.150;2023-09-19T04:58:58;64.22;;;27.20;;
72761;SDS011;60886;55.034;73.150;2023-09-19T05:02:00;60.05;;;27.02;;
72761;SDS011;60886;55.034;73.150;2023-09-19T05:05:02;54.08;;;25.48;;
72761;SDS011;60886;55.034;73.150;2023-09-19T05:08:05;68.25;;;27.58;;
72761;SDS011;60886;55.034;73.150;2023-09-19T05:11:07;61.17;;;25.33;;
72761;SDS011;60886;55.034;73.150;2023-09-19T05:14:09;67.32;;;27.13;;
72761;SDS011;60886;55.034;73.150;2023-09-19T05:17:12;66.47;;;25.70;;
72761;SDS011;60886;55.034;73.150;2023-09-19T05:20:17;66.60;;;27.48;;
72761;SDS011;60886;55.034;73.150;2023-09-19T05:23:33;70.20;;;27.63;;
72761;SDS011;60886;55.034;73.150;2023-09-19T05:26:35;65.90;;;27.67;;
72761;SDS011;60886;55.034;73.150;2023-09-19T05:29:36;56.90;;;24.87;;
72761;SDS011;60886;55.034;73.150;2023-09-19T05:32:38;43.35;;;19.50;;
72761;SDS011;60886;55.034;73.150;2023-09-19T05:35:39;38.05;;;16.27;;
72761;SDS011;60886;55.034;73.150;2023-09-19T05:38:49;28.73;;;13.42;;
72761;SDS011;60886;55.034;73.150;2023-09-19T05:41:53;30.25;;;13.48;;
72761;SDS011;60886;55.034;73.150;2023-09-19T05:44:56;21.60;;;8.90;;
72761;SDS011;60886;55.034;73.150;2023-09-19T05:48:14;23.90;;;8.15;;
72761;SDS011;60886;55.034;73.150;2023-09-19T05:51:19;20.92;;;7.97;;
72761;SDS011;60886;55.034;73.150;2023-09-19T05:54:24;26.53;;;8.80;;
72761;SDS011;60886;55.034;73.150;2023-09-19T05:57:27;25.40;;;8.20;;
72761;SDS011;60886;55.034;73.150;2023-09-19T06:00:30;26.65;;;8.27;;
72761;SDS011;60886;55.034;73.150;2023-09-19T06:03:33;31.77;;;12.27;;
72761;SDS011;60886;55.034;73.150;2023-09-19T06:06:36;23.40;;;8.65;;
72761;SDS011;60886;55.034;73.150;2023-09-19T06:09:40;17.90;;;8.10;;
72761;SDS011;60886;55.034;73.150;2023-09-19T06:12:43;17.50;;;7.65;;
72761;SDS011;60886;55.034;73.150;2023-09-19T06:15:47;18.37;;;7.87;;
72761;SDS011;60886;55.034;73.150;2023-09-19T06:18:51;22.08;;;8.08;;
72761;SDS011;60886;55.034;73.150;2023-09-19T06:21:53;24.10;;;7.40;;
72761;SDS011;60886;55.034;73.150;2023-09-19T06:24:57;20.53;;;6.60;;
72761;SDS011;60886;55.034;73.150;2023-09-19T06:28:02;29.35;;;10.75;;
72761;SDS011;60886;55.034;73.150;2023-09-19T06:31:07;19.58;;;7.60;;
72761;SDS011;60886;55.034;73.150;2023-09-19T06:34:13;17.30;;;6.80;;
72761;SDS011;60886;55.034;73.150;2023-09-19T06:37:18;15.15;;;6.20;;
72761;SDS011;60886;55.034;73.150;2023-09-19T06:40:20;14.40;;;5.20;;
72761;SDS011;60886;55.034;73.150;2023-09-19T06:43:21;18.67;;;5.95;;
72761;SDS011;60886;55.034;73.150;2023-09-19T06:46:23;12.82;;;4.78;;
72761;SDS011;60886;55.034;73.150;2023-09-19T06:49:25;18.63;;;7.28;;
72761;SDS011;60886;55.034;73.150;2023-09-19T06:52:27;16.42;;;5.38;;
72761;SDS011;60886;55.034;73.150;2023-09-19T06:55:29;12.67;;;5.47;;
72761;SDS011;60886;55.034;73.150;2023-09-19T06:58:32;13.40;;;4.90;;
72761;SDS011;60886;55.034;73.150;2023-09-19T07:01:33;17.55;;;5.22;;
72761;SDS011;60886;55.034;73.150;2023-09-19T07:04:36;13.67;;;4.93;;
72761;SDS011;60886;55.034;73.150;2023-09-19T07:07:37;11.48;;;4.50;;
72761;SDS011;60886;55.034;73.150;2023-09-19T07:10:39;11.85;;;3.92;;
72761;SDS011;60886;55.034;73.150;2023-09-19T07:13:49;13.46;;;4.30;;
72761;SDS011;60886;55.034;73.150;2023-09-19T07:16:51;14.90;;;4.20;;
72761;SDS011;60886;55.034;73.150;2023-09-19T07:19:53;9.95;;;4.07;;
72761;SDS011;60886;55.034;73.150;2023-09-19T07:22:55;12.63;;;3.92;;
72761;SDS011;60886;55.034;73.150;2023-09-19T07:25:56;16.58;;;6.18;;
72761;SDS011;60886;55.034;73.150;2023-09-19T07:28:59;8.30;;;3.50;;
72761;SDS011;60886;55.034;73.150;2023-09-19T07:32:04;9.82;;;3.22;;
72761;SDS011;60886;55.034;73.150;2023-09-19T07:35:07;9.73;;;3.53;;
72761;SDS011;60886;55.034;73.150;2023-09-19T07:38:09;9.30;;;3.55;;
72761;SDS011;60886;55.034;73.150;2023-09-19T07:41:12;11.18;;;4.82;;
72761;SDS011;60886;55.034;73.150;2023-09-19T07:44:15;10.67;;;3.47;;
72761;SDS011;60886;55.034;73.150;2023-09-19T07:47:24;9.98;;;4.07;;
72761;SDS011;60886;55.034;73.150;2023-09-19T07:50:27;10.20;;;3.88;;
72761;SDS011;60886;55.034;73.150;2023-09-19T07:53:31;9.93;;;4.17;;
72761;SDS011;60886;55.034;73.150;2023-09-19T07:56:37;8.27;;;3.35;;
72761;SDS011;60886;55.034;73.150;2023-09-19T07:59:42;11.83;;;4.70;;
72761;SDS011;60886;55.034;73.150;2023-09-19T08:02:46;8.38;;;3.35;;
72761;SDS011;60886;55.034;73.150;2023-09-19T08:05:52;9.00;;;3.60;;
72761;SDS011;60886;55.034;73.150;2023-09-19T08:08:54;8.65;;;3.20;;
72761;SDS011;60886;55.034;73.150;2023-09-19T08:11:55;8.45;;;3.40;;
72761;SDS011;60886;55.034;73.150;2023-09-19T08:14:58;10.73;;;4.20;;
72761;SDS011;60886;55.034;73.150;2023-09-19T08:18:03;9.77;;;3.30;;
72761;SDS011;60886;55.034;73.150;2023-09-19T08:21:12;12.53;;;4.57;;
72761;SDS011;60886;55.034;73.150;2023-09-19T08:24:21;13.77;;;5.63;;
72761;SDS011;60886;55.034;73.150;2023-09-19T08:27:27;11.10;;;3.55;;
72761;SDS011;60886;55.034;73.150;2023-09-19T08:30:29;10.18;;;3.42;;
72761;SDS011;60886;55.034;73.150;2023-09-19T08:33:39;10.57;;;3.00;;
72761;SDS011;60886;55.034;73.150;2023-09-19T08:36:54;14.43;;;3.65;;
72761;SDS011;60886;55.034;73.150;2023-09-19T08:39:58;8.25;;;3.30;;
72761;SDS011;60886;55.034;73.150;2023-09-19T08:43:00;10.45;;;3.33;;
72761;SDS011;60886;55.034;73.150;2023-09-19T08:49:08;13.60;;;5.53;;
72761;SDS011;60886;55.034;73.150;2023-09-19T08:52:28;8.95;;;3.65;;
72761;SDS011;60886;55.034;73.150;2023-09-19T08:55:51;12.00;;;4.53;;
72761;SDS011;60886;55.034;73.150;2023-09-19T08:58:59;11.70;;;4.40;;
72761;SDS011;60886;55.034;73.150;2023-09-19T09:02:10;9.10;;;3.63;;
72761;SDS011;60886;55.034;73.150;2023-09-19T09:05:17;7.67;;;3.30;;
72761;SDS011;60886;55.034;73.150;2023-09-19T09:08:24;17.80;;;3.90;;
72761;SDS011;60886;55.034;73.150;2023-09-19T09:11:29;9.60;;;3.87;;
72761;SDS011;60886;55.034;73.150;2023-09-19T09:14:44;10.67;;;3.40;;
72761;SDS011;60886;55.034;73.150;2023-09-19T09:17:53;10.57;;;5.13;;
72761;SDS011;60886;55.034;73.150;2023-09-19T09:20:59;10.85;;;3.80;;
72761;SDS011;60886;55.034;73.150;2023-09-19T09:27:35;11.65;;;4.82;;
72761;SDS011;60886;55.034;73.150;2023-09-19T09:30:38;7.70;;;3.40;;
72761;SDS011;60886;55.034;73.150;2023-09-19T09:33:55;10.39;;;3.60;;
72761;SDS011;60886;55.034;73.150;2023-09-19T09:36:58;9.55;;;3.42;;
72761;SDS011;60886;55.034;73.150;2023-09-19T09:40:01;11.97;;;4.07;;
72761;SDS011;60886;55.034;73.150;2023-09-19T09:43:26;9.82;;;3.80;;
72761;SDS011;60886;55.034;73.150;2023-09-19T09:46:29;10.60;;;3.57;;
72761;SDS011;60886;55.034;73.150;2023-09-19T09:49:55;13.60;;;3.80;;
72761;SDS011;60886;55.034;73.150;2023-09-19T09:56:27;10.77;;;3.80;;
72761;SDS011;60886;55.034;73.150;2023-09-19T10:02:59;9.85;;;3.70;;
72761;SDS011;60886;55.034;73.150;2023-09-19T10:06:02;10.38;;;2.92;;
72761;SDS011;60886;55.034;73.150;2023-09-19T10:09:23;10.88;;;3.22;;
72761;SDS011;60886;55.034;73.150;2023-09-19T10:12:31;12.10;;;4.00;;
72761;SDS011;60886;55.034;73.150;2023-09-19T10:15:44;8.13;;;2.88;;
72761;SDS011;60886;55.034;73.150;2023-09-19T10:18:58;9.90;;;3.23;;
72761;SDS011;60886;55.034;73.150;2023-09-19T10:22:04;12.13;;;3.45;;
72761;SDS011;60886;55.034;73.150;2023-09-19T10:25:16;9.57;;;3.67;;
72761;SDS011;60886;55.034;73.150;2023-09-19T10:28:21;10.43;;;3.90;;
72761;SDS011;60886;55.034;73.150;2023-09-19T10:31:27;10.33;;;4.10;;
72761;SDS011;60886;55.034;73.150;2023-09-19T10:34:29;12.45;;;5.38;;
72761;SDS011;60886;55.034;73.150;2023-09-19T10:38:01;9.30;;;4.63;;
72761;SDS011;60886;55.034;73.150;2023-09-19T10:41:06;9.98;;;3.85;;
72761;SDS011;60886;55.034;73.150;2023-09-19T10:44:09;9.52;;;3.03;;
72761;SDS011;60886;55.034;73.150;2023-09-19T10:47:12;8.60;;;3.20;;
72761;SDS011;60886;55.034;73.150;2023-09-19T10:50:21;10.60;;;4.23;;
72761;SDS011;60886;55.034;73.150;2023-09-19T10:57:24;10.05;;;3.33;;
72761;SDS011;60886;55.034;73.150;2023-09-19T11:00:49;9.63;;;4.47;;
72761;SDS011;60886;55.034;73.150;2023-09-19T11:04:23;9.43;;;3.60;;
72761;SDS011;60886;55.034;73.150;2023-09-19T11:07:28;9.95;;;3.03;;
72761;SDS011;60886;55.034;73.150;2023-09-19T11:14:11;7.40;;;3.25;;
72761;SDS011;60886;55.034;73.150;2023-09-19T11:17:34;9.68;;;2.80;;
72761;SDS011;60886;55.034;73.150;2023-09-19T11:20:48;7.97;;;3.47;;
72761;SDS011;60886;55.034;73.150;2023-09-19T11:24:29;10.10;;;3.50;;
72761;SDS011;60886;55.034;73.150;2023-09-19T11:27:32;10.83;;;3.40;;
72761;SDS011;60886;55.034;73.150;2023-09-19T11:30:36;9.03;;;3.80;;
72761;SDS011;60886;55.034;73.150;2023-09-19T11:33:39;7.95;;;3.50;;
72761;SDS011;60886;55.034;73.150;2023-09-19T11:36:47;11.82;;;4.88;;
72761;SDS011;60886;55.034;73.150;2023-09-19T11:40:05;10.15;;;3.70;;
72761;SDS011;60886;55.034;73.150;2023-09-19T11:43:27;9.07;;;3.40;;
72761;SDS011;60886;55.034;73.150;2023-09-19T11:49:57;8.65;;;3.20;;
72761;SDS011;60886;55.034;73.150;2023-09-19T11:53:01;10.77;;;3.40;;
72761;SDS011;60886;55.034;73.150;2023-09-19T11:56:05;8.27;;;3.20;;
72761;SDS011;60886;55.034;73.150;2023-09-19T11:59:11;9.60;;;3.47;;
72761;SDS011;60886;55.034;73.150;2023-09-19T12:02:38;11.10;;;4.00;;
72761;SDS011;60886;55.034;73.150;2023-09-19T12:05:43;13.13;;;4.43;;
72761;SDS011;60886;55.034;73.150;2023-09-19T12:08:49;14.57;;;5.53;;
72761;SDS011;60886;55.034;73.150;2023-09-19T12:11:52;11.75;;;5.28;;
72761;SDS011;60886;55.034;73.150;2023-09-19T12:14:54;12.10;;;4.97;;
72761;SDS011;60886;55.034;73.150;2023-09-19T12:17:58;13.88;;;5.80;;
72761;SDS011;60886;55.034;73.150;2023-09-19T12:20:59;16.57;;;5.90;;
72761;SDS011;60886;55.034;73.150;2023-09-19T12:24:11;13.23;;;5.87;;
72761;SDS011;60886;55.034;73.150;2023-09-19T12:27:19;10.32;;;4.85;;
72761;SDS011;60886;55.034;73.150;2023-09-19T12:30:27;16.20;;;5.93;;
72761;SDS011;60886;55.034;73.150;2023-09-19T12:33:34;12.38;;;5.57;;
72761;SDS011;60886;55.034;73.150;2023-09-19T12:36:40;12.52;;;4.70;;
72761;SDS011;60886;55.034;73.150;2023-09-19T12:39:43;10.23;;;4.20;;
72761;SDS011;60886;55.034;73.150;2023-09-19T12:42:49;12.02;;;4.70;;
72761;SDS011;60886;55.034;73.150;2023-09-19T12:45:54;9.90;;;4.40;;
72761;SDS011;60886;55.034;73.150;2023-09-19T12:49:14;10.67;;;4.40;;
72761;SDS011;60886;55.034;73.150;2023-09-19T12:52:18;10.48;;;4.28;;
72761;SDS011;60886;55.034;73.150;2023-09-19T12:55:24;9.73;;;4.60;;
72761;SDS011;60886;55.034;73.150;2023-09-19T12:58:56;10.18;;;5.43;;
72761;SDS011;60886;55.034;73.150;2023-09-19T13:02:04;13.37;;;5.30;;
72761;SDS011;60886;55.034;73.150;2023-09-19T13:05:15;11.60;;;4.85;;
72761;SDS011;60886;55.034;73.150;2023-09-19T13:08:18;11.63;;;4.93;;
72761;SDS011;60886;55.034;73.150;2023-09-19T13:11:22;11.60;;;5.88;;
72761;SDS011;60886;55.034;73.150;2023-09-19T13:14:24;11.30;;;5.07;;
72761;SDS011;60886;55.034;73.150;2023-09-19T13:17:44;13.53;;;5.38;;
72761;SDS011;60886;55.034;73.150;2023-09-19T13:21:08;15.57;;;5.40;;
72761;SDS011;60886;55.034;73.150;2023-09-19T13:24:23;12.33;;;5.67;;
72761;SDS011;60886;55.034;73.150;2023-09-19T13:27:31;13.80;;;5.85;;
72761;SDS011;60886;55.034;73.150;2023-09-19T13:30:44;14.43;;;6.30;;
72761;SDS011;60886;55.034;73.150;2023-09-19T13:33:49;15.75;;;6.60;;
72761;SDS011;60886;55.034;73.150;2023-09-19T13:36:51;16.13;;;7.10;;
72761;SDS011;60886;55.034;73.150;2023-09-19T13:39:52;19.27;;;7.13;;
72761;SDS011;60886;55.034;73.150;2023-09-19T13:42:57;18.47;;;7.10;;
72761;SDS011;60886;55.034;73.150;2023-09-19T13:45:58;13.10;;;6.68;;
72761;SDS011;60886;55.034;73.150;2023-09-19T13:49:00;14.10;;;6.50;;
72761;SDS011;60886;55.034;73.150;2023-09-19T13:52:08;15.60;;;6.43;;
72761;SDS011;60886;55.034;73.150;2023-09-19T13:55:19;21.67;;;7.87;;
72761;SDS011;60886;55.034;73.150;2023-09-19T13:58:21;18.10;;;8.23;;
72761;SDS011;60886;55.034;73.150;2023-09-19T14:01:31;20.57;;;7.90;;
72761;SDS011;60886;55.034;73.150;2023-09-19T14:05:18;18.27;;;7.43;;
72761;SDS011;60886;55.034;73.150;2023-09-19T14:09:00;22.83;;;9.35;;
72761;SDS011;60886;55.034;73.150;2023-09-19T14:12:02;39.22;;;18.95;;
72761;SDS011;60886;55.034;73.150;2023-09-19T14:15:09;57.50;;;27.20;;
72761;SDS011;60886;55.034;73.150;2023-09-19T14:18:20;60.42;;;30.38;;
72761;SDS011;60886;55.034;73.150;2023-09-19T14:21:22;52.67;;;27.05;;
72761;SDS011;60886;55.034;73.150;2023-09-19T14:24:25;39.13;;;21.27;;
72761;SDS011;60886;55.034;73.150;2023-09-19T14:27:27;32.97;;;16.88;;
72761;SDS011;60886;55.034;73.150;2023-09-19T14:30:31;38.08;;;16.92;;
72761;SDS011;60886;55.034;73.150;2023-09-19T14:33:33;38.40;;;17.45;;
72761;SDS011;60886;55.034;73.150;2023-09-19T14:36:36;38.93;;;15.80;;
72761;SDS011;60886;55.034;73.150;2023-09-19T14:39:40;40.53;;;16.45;;
72761;SDS011;60886;55.034;73.150;2023-09-19T14:47:05;29.13;;;13.67;;
72761;SDS011;60886;55.034;73.150;2023-09-19T14:50:13;39.90;;;19.90;;
72761;SDS011;60886;55.034;73.150;2023-09-19T14:53:47;51.97;;;29.97;;
72761;SDS011;60886;55.034;73.150;2023-09-19T14:57:05;38.58;;;17.17;;
72761;SDS011;60886;55.034;73.150;2023-09-19T15:00:25;38.20;;;17.48;;
72761;SDS011;60886;55.034;73.150;2023-09-19T15:03:28;36.80;;;16.52;;
72761;SDS011;60886;55.034;73.150;2023-09-19T15:06:32;30.90;;;14.82;;
72761;SDS011;60886;55.034;73.150;2023-09-19T15:09:38;35.65;;;16.73;;
72761;SDS011;60886;55.034;73.150;2023-09-19T15:12:43;30.77;;;14.35;;
72761;SDS011;60886;55.034;73.150;2023-09-19T15:15:52;31.83;;;15.13;;
72761;SDS011;60886;55.034;73.150;2023-09-19T15:18:54;35.40;;;16.10;;
72761;SDS011;60886;55.034;73.150;2023-09-19T15:22:04;34.92;;;16.42;;
72761;SDS011;60886;55.034;73.150;2023-09-19T15:25:08;34.58;;;15.40;;
72761;SDS011;60886;55.034;73.150;2023-09-19T15:28:14;38.35;;;15.70;;
72761;SDS011;60886;55.034;73.150;2023-09-19T15:31:19;48.88;;;20.05;;
72761;SDS011;60886;55.034;73.150;2023-09-19T15:34:20;38.70;;;15.80;;
72761;SDS011;60886;55.034;73.150;2023-09-19T15:37:28;34.45;;;15.20;;
72761;SDS011;60886;55.034;73.150;2023-09-19T15:47:38;31.23;;;14.73;;
72761;SDS011;60886;55.034;73.150;2023-09-19T15:50:43;36.60;;;14.77;;
72761;SDS011;60886;55.034;73.150;2023-09-19T15:53:49;26.58;;;12.52;;
72761;SDS011;60886;55.034;73.150;2023-09-19T15:56:57;31.05;;;13.82;;
72761;SDS011;60886;55.034;73.150;2023-09-19T16:00:01;26.10;;;11.00;;
72761;SDS011;60886;55.034;73.150;2023-09-19T16:03:17;26.15;;;10.77;;
72761;SDS011;60886;55.034;73.150;2023-09-19T16:06:35;24.80;;;11.43;;
72761;SDS011;60886;55.034;73.150;2023-09-19T16:09:49;57.33;;;23.83;;
72761;SDS011;60886;55.034;73.150;2023-09-19T16:12:53;61.47;;;26.25;;
72761;SDS011;60886;55.034;73.150;2023-09-19T16:16:04;60.50;;;25.08;;
72761;SDS011;60886;55.034;73.150;2023-09-19T16:19:24;68.18;;;29.80;;
72761;SDS011;60886;55.034;73.150;2023-09-19T16:26:19;50.53;;;23.07;;
72761;SDS011;60886;55.034;73.150;2023-09-19T16:29:32;38.70;;;18.25;;
72761;SDS011;60886;55.034;73.150;2023-09-19T16:32:37;48.95;;;17.88;;
72761;SDS011;60886;55.034;73.150;2023-09-19T16:35:42;43.03;;;17.40;;
72761;SDS011;60886;55.034;73.150;2023-09-19T16:38:49;42.47;;;18.23;;
72761;SDS011;60886;55.034;73.150;2023-09-19T16:41:51;42.15;;;18.08;;
72761;SDS011;60886;55.034;73.150;2023-09-19T16:45:07;32.17;;;14.90;;
72761;SDS011;60886;55.034;73.150;2023-09-19T16:48:13;31.98;;;14.77;;
72761;SDS011;60886;55.034;73.150;2023-09-19T16:51:16;48.30;;;21.20;;
72761;SDS011;60886;55.034;73.150;2023-09-19T16:54:23;77.77;;;37.97;;
72761;SDS011;60886;55.034;73.150;2023-09-19T16:57:35;45.03;;;21.10;;
72761;SDS011;60886;55.034;73.150;2023-09-19T17:00:47;43.13;;;18.83;;
72761;SDS011;60886;55.034;73.150;2023-09-19T17:04:00;37.47;;;18.05;;
72761;SDS011;60886;55.034;73.150;2023-09-19T17:07:04;33.65;;;15.80;;
72761;SDS011;60886;55.034;73.150;2023-09-19T17:10:20;29.53;;;14.57;;
72761;SDS011;60886;55.034;73.150;2023-09-19T17:13:36;28.30;;;11.85;;
72761;SDS011;60886;55.034;73.150;2023-09-19T17:16:38;38.13;;;15.10;;
72761;SDS011;60886;55.034;73.150;2023-09-19T17:19:39;33.67;;;15.43;;
72761;SDS011;60886;55.034;73.150;2023-09-19T17:22:41;34.47;;;14.63;;
72761;SDS011;60886;55.034;73.150;2023-09-19T17:25:42;31.88;;;15.07;;
72761;SDS011;60886;55.034;73.150;2023-09-19T17:28:49;35.45;;;15.48;;
72761;SDS011;60886;55.034;73.150;2023-09-19T17:31:50;34.05;;;15.20;;
72761;SDS011;60886;55.034;73.150;2023-09-19T17:34:52;48.53;;;22.47;;
72761;SDS011;60886;55.034;73.150;2023-09-19T17:37:53;31.27;;;14.43;;
72761;SDS011;60886;55.034;73.150;2023-09-19T17:40:55;29.87;;;13.37;;
72761;SDS011;60886;55.034;73.150;2023-09-19T17:43:57;30.75;;;12.57;;
72761;SDS011;60886;55.034;73.150;2023-09-19T17:47:00;28.58;;;11.57;;
72761;SDS011;60886;55.034;73.150;2023-09-19T17:50:02;33.77;;;13.50;;
72761;SDS011;60886;55.034;73.150;2023-09-19T17:53:05;34.55;;;14.18;;
72761;SDS011;60886;55.034;73.150;2023-09-19T17:56:07;31.52;;;13.73;;
72761;SDS011;60886;55.034;73.150;2023-09-19T17:59:10;31.63;;;14.00;;
72761;SDS011;60886;55.034;73.150;2023-09-19T18:02:14;31.10;;;13.93;;
72761;SDS011;60886;55.034;73.150;2023-09-19T18:05:16;29.73;;;13.50;;
72761;SDS011;60886;55.034;73.150;2023-09-19T18:08:17;29.92;;;12.75;;
72761;SDS011;60886;55.034;73.150;2023-09-19T18:11:21;27.57;;;13.67;;
72761;SDS011;60886;55.034;73.150;2023-09-19T18:14:26;28.50;;;14.17;;
72761;SDS011;60886;55.034;73.150;2023-09-19T18:17:32;30.42;;;13.88;;
72761;SDS011;60886;55.034;73.150;2023-09-19T18:20:36;26.43;;;12.67;;
72761;SDS011;60886;55.034;73.150;2023-09-19T18:23:52;38.04;;;19.30;;
72761;SDS011;60886;55.034;73.150;2023-09-19T18:27:16;44.88;;;21.58;;
72761;SDS011;60886;55.034;73.150;2023-09-19T18:30:17;43.35;;;21.33;;
72761;SDS011;60886;55.034;73.150;2023-09-19T18:33:19;47.28;;;24.40;;
72761;SDS011;60886;55.034;73.150;2023-09-19T18:36:31;37.93;;;20.00;;
72761;SDS011;60886;55.034;73.150;2023-09-19T18:39:36;36.70;;;18.97;;
72761;SDS011;60886;55.034;73.150;2023-09-19T18:42:52;34.90;;;17.20;;
72761;SDS011;60886;55.034;73.150;2023-09-19T18:45:58;36.50;;;17.13;;
72761;SDS011;60886;55.034;73.150;2023-09-19T18:49:02;37.63;;;18.20;;
72761;SDS011;60886;55.034;73.150;2023-09-19T18:52:12;29.65;;;13.27;;
72761;SDS011;60886;55.034;73.150;2023-09-19T18:55:16;25.20;;;12.47;;
72761;SDS011;60886;55.034;73.150;2023-09-19T18:58:22;28.58;;;12.15;;
72761;SDS011;60886;55.034;73.150;2023-09-19T19:01:29;21.63;;;10.18;;